Time;durP1;ratioP1;P1;durP2;ratioP2;P2;SDS_P1;SDS_P2;PMS_P1;PMS_P2;Temp;Humidity;BMP_temperature;BMP_pressure;BME280_temperature;BME280_humidity;BME280_pressure;Samples;Min_cycle;Max_cycle;Signal;HPM_P1;HPM_P2
2021/07/28 00:01:29;;;;;;;10.50;8.73;;;18.80;99.90;;;;;;5015467;28;20022;-74
2021/07/28 00:03:54;;;;;;;13.55;8.23;;;18.80;99.90;;;;;;5015671;28;20048;-74
2021/07/28 00:06:21;;;;;;;14.02;9.30;;;18.70;99.90;;;;;;5015759;28;20101;-74
2021/07/28 00:08:48;;;;;;;14.27;9.00;;;18.70;99.90;;;;;;4997702;28;20026;-74
2021/07/28 00:11:17;;;;;;;13.23;9.55;;;18.70;99.90;;;;;;5015205;28;20370;-74
2021/07/28 00:13:46;;;;;;;14.10;9.25;;;18.70;99.90;;;;;;4997832;28;20026;-74
2021/07/28 00:16:15;;;;;;;11.00;7.50;;;18.70;99.90;;;;;;5015316;28;20460;-74
2021/07/28 00:23:51;;;;;;;9.03;7.20;;;18.50;99.90;;;;;;5015308;28;20084;-74
2021/07/28 00:26:17;;;;;;;8.07;6.72;;;18.40;99.90;;;;;;5015201;28;20034;-74
2021/07/28 00:28:42;;;;;;;8.75;6.78;;;18.40;99.90;;;;;;5014837;28;20068;-74
2021/07/28 00:31:08;;;;;;;8.02;5.82;;;18.40;99.90;;;;;;5014280;28;20041;-74
2021/07/28 00:33:33;;;;;;;10.57;6.55;;;18.30;99.90;;;;;;5015098;28;20064;-74
2021/07/28 00:35:59;;;;;;;9.27;6.45;;;18.30;99.90;;;;;;5015052;28;20101;-74
2021/07/28 00:38:25;;;;;;;8.30;6.20;;;18.20;99.90;;;;;;5015284;28;20026;-74
2021/07/28 00:40:51;;;;;;;7.57;5.28;;;18.20;99.90;;;;;;5015006;28;20523;-74
2021/07/28 00:43:16;;;;;;;11.02;5.97;;;18.10;99.90;;;;;;5014942;28;20058;-75
2021/07/28 00:45:43;;;;;;;8.68;5.97;;;18.00;99.90;;;;;;5015205;28;20029;-74
2021/07/28 00:48:09;;;;;;;9.43;5.97;;;18.00;99.90;;;;;;5014449;28;20045;-74
2021/07/28 00:50:36;;;;;;;11.25;5.80;;;18.00;99.90;;;;;;4996877;28;20117;-74
2021/07/28 00:53:02;;;;;;;10.48;6.40;;;17.90;99.90;;;;;;4997020;28;20034;-74
2021/07/28 00:55:31;;;;;;;8.27;5.50;;;17.90;99.90;;;;;;5015012;28;20101;-74
2021/07/28 00:57:59;;;;;;;9.82;6.13;;;17.90;99.90;;;;;;5014965;28;20088;-74
2021/07/28 01:00:24;;;;;;;6.85;5.32;;;17.80;99.90;;;;;;4995207;28;20066;-74
2021/07/28 01:02:50;;;;;;;11.25;6.72;;;17.80;99.90;;;;;;4995109;28;20081;-74
2021/07/28 01:05:15;;;;;;;9.40;5.90;;;17.80;99.90;;;;;;4994930;28;20186;-74
2021/07/28 01:07:41;;;;;;;10.85;7.18;;;17.80;99.90;;;;;;4994757;28;20080;-74
2021/07/28 01:10:07;;;;;;;10.18;7.68;;;17.80;99.90;;;;;;4994433;28;20104;-74
2021/07/28 01:12:34;;;;;;;10.82;7.97;;;17.70;99.90;;;;;;4994823;28;20357;-74
2021/07/28 01:14:59;;;;;;;8.80;6.90;;;17.70;99.90;;;;;;4993238;28;20384;-74
2021/07/28 01:17:25;;;;;;;12.68;7.18;;;17.70;99.90;;;;;;4995096;28;20023;-75
2021/07/28 01:19:59;;;;;;;9.40;6.80;;;17.70;99.90;;;;;;4993012;28;20045;-80
2021/07/28 01:22:25;;;;;;;12.40;7.60;;;17.70;99.90;;;;;;5006490;28;20483;-80
2021/07/28 01:24:51;;;;;;;10.23;7.40;;;17.70;99.90;;;;;;5007882;28;20045;-80
2021/07/28 01:27:18;;;;;;;10.50;7.28;;;17.60;99.90;;;;;;5007867;28;20407;-80
2021/07/28 01:29:44;;;;;;;8.65;6.80;;;17.60;99.90;;;;;;5008243;28;20030;-80
2021/07/28 01:32:09;;;;;;;11.00;6.93;;;17.60;99.90;;;;;;5007949;28;20696;-80
2021/07/28 01:34:35;;;;;;;12.20;6.95;;;17.60;99.90;;;;;;5007229;28;20476;-80
2021/07/28 01:37:03;;;;;;;8.13;6.38;;;17.60;99.90;;;;;;5007883;28;20036;-80
2021/07/28 01:39:31;;;;;;;8.75;6.78;;;17.60;99.90;;;;;;5007692;28;20049;-80
2021/07/28 01:42:00;;;;;;;10.10;6.35;;;17.60;99.90;;;;;;5008253;28;20037;-80
2021/07/28 01:44:30;;;;;;;7.53;6.28;;;17.60;99.90;;;;;;5007324;28;20029;-81
2021/07/28 01:46:56;;;;;;;8.40;6.35;;;17.60;99.90;;;;;;5007450;28;20022;-80
2021/07/28 01:49:22;;;;;;;9.93;7.10;;;17.60;99.90;;;;;;5007792;28;20378;-80
2021/07/28 01:51:47;;;;;;;7.25;6.05;;;17.60;99.90;;;;;;5007977;28;20030;-79
2021/07/28 01:54:13;;;;;;;10.02;5.95;;;17.60;99.90;;;;;;5007163;28;20034;-80
2021/07/28 01:56:42;;;;;;;9.15;5.55;;;17.60;99.90;;;;;;5007227;28;20041;-80
2021/07/28 01:59:09;;;;;;;7.35;5.25;;;17.60;99.90;;;;;;5007510;28;20128;-80
2021/07/28 02:01:35;;;;;;;8.48;6.07;;;17.50;99.90;;;;;;5007278;28;20025;-80
2021/07/28 02:04:01;;;;;;;8.70;5.68;;;17.50;99.90;;;;;;5007799;28;20041;-80
2021/07/28 02:06:26;;;;;;;7.45;6.10;;;17.50;99.90;;;;;;4989761;28;20037;-80
2021/07/28 02:08:52;;;;;;;8.90;6.03;;;17.50;99.90;;;;;;5007573;28;20040;-80
2021/07/28 02:11:17;;;;;;;10.93;6.28;;;17.50;99.90;;;;;;5007374;28;20032;-80
2021/07/28 02:13:43;;;;;;;9.88;6.15;;;17.40;99.90;;;;;;5006879;28;20030;-80
2021/07/28 02:16:08;;;;;;;10.25;5.85;;;17.40;99.90;;;;;;5007286;28;20030;-80
2021/07/28 02:18:35;;;;;;;7.90;5.78;;;17.40;99.90;;;;;;5007311;28;20088;-80
2021/07/28 02:21:02;;;;;;;10.55;6.07;;;17.40;99.90;;;;;;5007159;28;20069;-80
2021/07/28 02:23:27;;;;;;;9.18;6.20;;;17.40;99.90;;;;;;5007078;28;20038;-80
2021/07/28 02:25:53;;;;;;;9.07;5.82;;;17.40;99.90;;;;;;5007330;28;20029;-80
2021/07/28 02:28:19;;;;;;;6.88;5.93;;;17.40;99.90;;;;;;5006867;28;20496;-80
2021/07/28 02:30:47;;;;;;;8.25;5.40;;;17.40;99.90;;;;;;5007251;28;20105;-80
2021/07/28 02:33:13;;;;;;;7.25;5.53;;;17.40;99.90;;;;;;5007358;28;20037;-80
2021/07/28 02:35:38;;;;;;;8.20;6.15;;;17.30;99.90;;;;;;5006540;28;20034;-80
2021/07/28 02:38:04;;;;;;;7.63;6.07;;;17.30;99.90;;;;;;5007440;28;20033;-80
2021/07/28 02:40:29;;;;;;;7.18;6.07;;;17.30;99.90;;;;;;5006988;28;20032;-80
2021/07/28 02:42:55;;;;;;;6.88;5.70;;;17.30;99.90;;;;;;5007028;28;20026;-80
2021/07/28 02:45:21;;;;;;;7.90;6.30;;;17.20;99.90;;;;;;5006470;28;20040;-79
2021/07/28 02:47:46;;;;;;;11.27;6.10;;;17.20;99.90;;;;;;5007542;28;20045;-80
2021/07/28 02:50:12;;;;;;;15.38;6.43;;;17.20;99.90;;;;;;5007216;28;20717;-80
2021/07/28 02:52:38;;;;;;;10.52;6.25;;;17.20;99.90;;;;;;4985879;28;20537;-80
2021/07/28 02:55:06;;;;;;;10.60;6.35;;;17.20;99.90;;;;;;4991287;28;20149;-79
2021/07/28 02:57:32;;;;;;;8.50;6.40;;;17.20;99.90;;;;;;5010317;28;20519;-80
2021/07/28 02:59:58;;;;;;;10.73;5.78;;;17.20;99.90;;;;;;5010550;28;20024;-79
2021/07/28 03:02:23;;;;;;;10.95;6.28;;;17.20;99.90;;;;;;5010559;28;20046;-79
2021/07/28 03:04:49;;;;;;;8.57;5.65;;;17.20;99.90;;;;;;5010136;28;20087;-79
2021/07/28 03:07:15;;;;;;;7.43;5.70;;;17.20;99.90;;;;;;4993176;28;20426;-80
2021/07/28 03:09:40;;;;;;;9.50;5.75;;;17.20;99.90;;;;;;5010296;28;20149;-79
2021/07/28 03:12:06;;;;;;;7.38;5.30;;;17.20;99.90;;;;;;5009877;28;20045;-80
2021/07/28 03:14:32;;;;;;;11.82;5.65;;;17.20;99.90;;;;;;5010235;28;20018;-79
2021/07/28 03:16:57;;;;;;;8.25;5.55;;;17.20;99.90;;;;;;5010245;28;20478;-79
2021/07/28 03:19:23;;;;;;;11.48;5.78;;;17.20;99.90;;;;;;5010200;28;20026;-79
2021/07/28 03:21:52;;;;;;;7.95;5.03;;;17.20;99.90;;;;;;5010236;28;20054;-79
2021/07/28 03:24:18;;;;;;;10.52;5.90;;;17.20;99.90;;;;;;5009602;28;20034;-79
2021/07/28 03:26:45;;;;;;;11.85;6.55;;;17.10;99.90;;;;;;5010101;28;20025;-79
2021/07/28 03:29:11;;;;;;;8.32;5.72;;;17.10;99.90;;;;;;5009737;28;20037;-79
2021/07/28 03:31:36;;;;;;;8.57;5.28;;;17.10;99.90;;;;;;5009705;28;20362;-79
2021/07/28 03:34:02;;;;;;;8.35;5.25;;;17.10;99.90;;;;;;5009243;28;20044;-79
2021/07/28 03:36:27;;;;;;;8.27;6.18;;;17.10;99.90;;;;;;5010157;28;20032;-80
2021/07/28 03:38:53;;;;;;;10.20;6.28;;;17.10;99.90;;;;;;5009589;28;20096;-80
2021/07/28 03:41:18;;;;;;;8.35;6.25;;;17.10;99.90;;;;;;5009659;28;20094;-79
2021/07/28 03:43:44;;;;;;;8.02;5.50;;;17.20;99.90;;;;;;5009923;28;20112;-80
2021/07/28 03:46:09;;;;;;;6.40;4.35;;;17.20;99.90;;;;;;5009350;28;20157;-79
2021/07/28 03:48:35;;;;;;;7.60;4.68;;;17.20;99.90;;;;;;5009498;28;20033;-79
2021/07/28 03:51:01;;;;;;;5.25;4.20;;;17.10;99.90;;;;;;5009131;28;20331;-79
2021/07/28 03:53:27;;;;;;;5.38;4.28;;;17.20;99.90;;;;;;5009553;28;20034;-79
2021/07/28 03:55:53;;;;;;;6.50;4.15;;;17.10;99.90;;;;;;4991724;28;20617;-79
2021/07/28 03:58:19;;;;;;;5.93;4.85;;;17.10;99.90;;;;;;5009121;28;20056;-80
2021/07/28 04:00:45;;;;;;;7.15;4.30;;;17.10;99.90;;;;;;5009282;28;20026;-79
2021/07/28 04:03:10;;;;;;;7.75;4.63;;;17.10;99.90;;;;;;5009362;28;20041;-79
2021/07/28 04:05:36;;;;;;;8.10;4.63;;;17.10;99.90;;;;;;5008252;28;20029;-79
2021/07/28 04:08:02;;;;;;;6.53;4.60;;;17.20;99.90;;;;;;5009077;28;20065;-79
2021/07/28 04:10:28;;;;;;;7.25;4.22;;;17.20;99.90;;;;;;5008949;28;20026;-79
2021/07/28 04:12:53;;;;;;;5.85;4.40;;;17.20;99.90;;;;;;5008043;28;20029;-79
2021/07/28 04:15:19;;;;;;;6.25;4.75;;;17.10;99.90;;;;;;5008945;28;20050;-79
2021/07/28 04:17:45;;;;;;;5.97;4.80;;;17.20;99.90;;;;;;4991528;28;20048;-85
2021/07/28 04:20:11;;;;;;;7.68;4.75;;;17.10;99.90;;;;;;5015461;28;20058;-76
2021/07/28 04:22:36;;;;;;;7.95;4.72;;;17.10;99.90;;;;;;5033543;28;20025;-71
2021/07/28 04:25:05;;;;;;;7.47;5.20;;;17.10;99.90;;;;;;5014200;28;20097;-78
2021/07/28 04:27:31;;;;;;;7.30;5.00;;;17.00;99.90;;;;;;5015298;28;20022;-77
2021/07/28 04:29:56;;;;;;;6.13;5.15;;;17.00;99.90;;;;;;5014920;28;20093;-77
2021/07/28 04:32:23;;;;;;;10.00;4.90;;;17.00;99.90;;;;;;5014879;28;20117;-77
2021/07/28 04:34:48;;;;;;;7.35;4.78;;;17.00;99.90;;;;;;5014710;28;20497;-77
2021/07/28 04:37:15;;;;;;;7.05;4.90;;;17.00;99.90;;;;;;5015337;28;20101;-77
2021/07/28 04:39:40;;;;;;;6.32;5.10;;;17.00;99.90;;;;;;5015061;28;20152;-77
2021/07/28 04:42:06;;;;;;;6.05;4.70;;;17.00;99.90;;;;;;5014942;28;20025;-77
2021/07/28 04:44:32;;;;;;;8.48;5.43;;;17.10;99.90;;;;;;5014975;28;20056;-77
2021/07/28 04:46:57;;;;;;;8.68;5.30;;;17.10;99.90;;;;;;5014861;28;20030;-77
2021/07/28 04:49:23;;;;;;;11.38;5.00;;;17.10;99.90;;;;;;5014989;28;20493;-77
2021/07/28 04:51:48;;;;;;;9.82;5.43;;;17.20;99.90;;;;;;5014816;28;20026;-77
2021/07/28 04:54:14;;;;;;;9.88;4.97;;;17.20;99.90;;;;;;5014461;28;20022;-77
2021/07/28 04:56:39;;;;;;;7.35;5.05;;;17.20;99.90;;;;;;5014620;28;20022;-77
2021/07/28 04:59:05;;;;;;;7.60;5.13;;;17.30;99.90;;;;;;5014953;28;20509;-77
2021/07/28 05:01:31;;;;;;;7.95;5.15;;;17.30;99.90;;;;;;5014378;28;20153;-77
2021/07/28 05:03:57;;;;;;;7.68;4.90;;;17.30;99.90;;;;;;5014599;28;20383;-77
2021/07/28 05:06:22;;;;;;;8.20;4.95;;;17.30;99.90;;;;;;4996784;28;20033;-77
2021/07/28 05:08:48;;;;;;;10.05;5.22;;;17.30;99.90;;;;;;5014222;28;20463;-77
2021/07/28 05:11:13;;;;;;;9.65;4.78;;;17.30;99.90;;;;;;5014416;28;20049;-77
2021/07/28 05:13:39;;;;;;;8.48;5.25;;;17.30;99.90;;;;;;5014094;28;20506;-77
2021/07/28 05:16:05;;;;;;;11.63;4.60;;;17.40;99.90;;;;;;5014183;28;20494;-78
2021/07/28 05:18:32;;;;;;;6.85;4.80;;;17.40;99.90;;;;;;5014174;28;20021;-78
2021/07/28 05:20:58;;;;;;;9.70;4.82;;;17.40;99.90;;;;;;5010069;28;20084;-83
2021/07/28 05:23:24;;;;;;;7.90;5.20;;;17.40;99.90;;;;;;5007177;28;20029;-81
2021/07/28 05:25:50;;;;;;;6.53;4.25;;;17.50;99.90;;;;;;5008050;28;20429;-82
2021/07/28 05:28:15;;;;;;;11.25;5.47;;;17.50;99.90;;;;;;5008359;28;20081;-81
2021/07/28 05:30:41;;;;;;;7.45;5.00;;;17.60;99.90;;;;;;5008215;28;20030;-81
2021/07/28 05:33:07;;;;;;;12.68;5.43;;;17.60;99.90;;;;;;5012435;28;20142;-79
2021/07/28 05:35:32;;;;;;;7.88;5.13;;;17.70;99.90;;;;;;5014655;28;20030;-79
2021/07/28 05:38:02;;;;;;;6.03;4.80;;;17.70;99.90;;;;;;5013998;28;20061;-78
2021/07/28 05:40:28;;;;;;;8.00;4.72;;;17.80;99.90;;;;;;5013887;28;20025;-78
2021/07/28 05:42:54;;;;;;;7.45;5.07;;;17.80;99.90;;;;;;5013858;28;20034;-78
2021/07/28 05:45:20;;;;;;;8.38;4.97;;;17.90;99.90;;;;;;5013704;28;20108;-78
2021/07/28 05:47:45;;;;;;;7.18;5.28;;;17.90;99.90;;;;;;5014035;28;20068;-78
2021/07/28 05:50:14;;;;;;;7.03;4.70;;;17.90;99.90;;;;;;5014071;28;20105;-79
2021/07/28 05:52:41;;;;;;;6.30;4.50;;;17.90;99.90;;;;;;5013715;28;20030;-80
2021/07/28 05:55:07;;;;;;;7.20;4.32;;;17.90;99.90;;;;;;5013728;28;20133;-78
2021/07/28 05:57:32;;;;;;;6.18;4.30;;;18.00;99.90;;;;;;5013826;28;20101;-79
2021/07/28 05:59:58;;;;;;;8.18;4.95;;;18.10;99.90;;;;;;5011375;28;20117;-72
2021/07/28 06:02:24;;;;;;;10.82;5.20;;;18.20;99.90;;;;;;5022026;28;20091;-77
2021/07/28 06:04:49;;;;;;;6.00;3.90;;;18.30;99.90;;;;;;5033426;28;20051;-78
2021/07/28 06:07:15;;;;;;;5.68;3.33;;;18.50;99.90;;;;;;5033660;28;20140;-79
2021/07/28 06:09:41;;;;;;;6.43;3.60;;;18.50;99.90;;;;;;5033423;28;20033;-79
2021/07/28 06:12:10;;;;;;;6.47;4.18;;;18.60;99.90;;;;;;5033085;28;20032;-79
2021/07/28 06:14:36;;;;;;;4.63;3.60;;;18.80;99.90;;;;;;5033328;28;20113;-81
2021/07/28 06:17:02;;;;;;;9.02;4.38;;;18.90;99.90;;;;;;5033267;28;20105;-81
2021/07/28 06:19:27;;;;;;;8.38;4.03;;;19.00;99.90;;;;;;5032775;28;20033;-81
2021/07/28 06:21:53;;;;;;;6.57;3.80;;;19.10;99.90;;;;;;5033289;28;20032;-81
2021/07/28 06:24:18;;;;;;;8.35;4.18;;;19.40;99.90;;;;;;5033241;28;20378;-81
2021/07/28 06:26:44;;;;;;;7.40;3.88;;;19.70;99.90;;;;;;5033264;28;20061;-81
2021/07/28 06:29:10;;;;;;;5.55;3.63;;;20.00;99.90;;;;;;5033673;28;20079;-85
2021/07/28 06:31:35;;;;;;;5.20;3.55;;;20.20;99.90;;;;;;5017117;28;20045;-85
2021/07/28 06:34:01;;;;;;;7.18;3.78;;;20.40;99.90;;;;;;5008943;28;20329;-85
2021/07/28 06:36:26;;;;;;;7.68;3.95;;;20.30;99.90;;;;;;5005985;28;20029;-85
2021/07/28 06:38:52;;;;;;;7.78;4.22;;;20.40;99.90;;;;;;5004838;28;20792;-85
2021/07/28 06:41:18;;;;;;;7.25;4.97;;;20.60;99.90;;;;;;5005375;28;20049;-85
2021/07/28 06:43:43;;;;;;;6.32;4.25;;;20.60;99.90;;;;;;5009474;28;20088;-84
2021/07/28 06:46:09;;;;;;;8.02;5.13;;;20.60;99.90;;;;;;4990194;28;20103;-84
2021/07/28 06:48:34;;;;;;;9.65;5.53;;;20.50;99.90;;;;;;5006934;28;20052;-85
2021/07/28 06:51:00;;;;;;;7.22;5.28;;;20.50;99.90;;;;;;5006603;28;20068;-85
2021/07/28 06:53:25;;;;;;;9.02;4.40;;;20.50;99.90;;;;;;5007691;28;20030;-84
2021/07/28 06:55:52;;;;;;;10.68;5.40;;;20.50;99.90;;;;;;5007532;28;20042;-84
2021/07/28 06:58:18;;;;;;;11.13;5.15;;;20.60;99.90;;;;;;5006337;28;20030;-84
2021/07/28 07:00:44;;;;;;;5.93;5.10;;;20.60;99.90;;;;;;5006633;28;20045;-84
2021/07/28 07:03:10;;;;;;;7.45;4.97;;;20.70;99.90;;;;;;5005887;28;20029;-83
2021/07/28 07:05:35;;;;;;;12.65;5.75;;;20.70;99.90;;;;;;5007703;28;20030;-84
2021/07/28 07:08:01;;;;;;;7.25;5.05;;;20.70;99.90;;;;;;5007926;28;20502;-83
2021/07/28 07:10:26;;;;;;;9.68;6.28;;;20.80;99.90;;;;;;5007968;28;20796;-83
2021/07/28 07:12:52;;;;;;;7.25;5.60;;;20.70;99.90;;;;;;5009310;28;20049;-84
2021/07/28 07:15:17;;;;;;;13.05;6.82;;;20.70;99.90;;;;;;5008278;28;20426;-84
2021/07/28 07:17:43;;;;;;;11.38;6.00;;;20.60;99.90;;;;;;5008082;28;20038;-84
2021/07/28 07:20:09;;;;;;;8.98;6.50;;;20.60;99.90;;;;;;4989424;28;20570;-84
2021/07/28 07:22:35;;;;;;;8.95;6.30;;;20.60;99.90;;;;;;5007897;28;20026;-84
2021/07/28 07:25:00;;;;;;;7.95;6.25;;;20.40;99.90;;;;;;5010661;28;20115;-87
2021/07/28 07:27:26;;;;;;;8.88;6.47;;;20.40;99.90;;;;;;5009334;28;20030;-82
2021/07/28 07:29:52;;;;;;;10.95;7.00;;;20.40;99.90;;;;;;5006399;28;20033;-82
2021/07/28 07:32:21;;;;;;;11.07;6.95;;;20.40;99.90;;;;;;5007408;28;20096;-82
2021/07/28 07:34:47;;;;;;;9.85;7.55;;;20.40;99.90;;;;;;5007623;28;20040;-82
2021/07/28 07:37:13;;;;;;;10.60;7.32;;;20.50;99.90;;;;;;5008368;28;20497;-82
2021/07/28 07:39:39;;;;;;;10.15;7.47;;;20.40;99.90;;;;;;5007704;28;20030;-82
2021/07/28 07:42:04;;;;;;;10.63;7.13;;;20.40;99.90;;;;;;5007199;28;20034;-81
2021/07/28 07:44:30;;;;;;;9.48;7.35;;;20.30;99.90;;;;;;5007550;28;20022;-82
2021/07/28 07:46:55;;;;;;;10.85;7.63;;;20.30;99.90;;;;;;5007439;28;20061;-81
2021/07/28 07:49:21;;;;;;;11.05;7.78;;;20.20;99.90;;;;;;4989667;28;20088;-81
2021/07/28 07:51:46;;;;;;;9.52;7.30;;;20.10;99.90;;;;;;5007145;28;20046;-82
2021/07/28 07:54:12;;;;;;;10.98;7.93;;;20.00;99.90;;;;;;5003868;28;20038;-81
2021/07/28 07:56:37;;;;;;;10.18;8.00;;;19.90;99.90;;;;;;4999687;28;20034;-80
2021/07/28 07:59:03;;;;;;;12.73;7.90;;;19.80;99.90;;;;;;5013625;28;20034;-76
2021/07/28 08:01:28;;;;;;;11.75;7.65;;;19.80;99.90;;;;;;5016045;28;20024;-76
2021/07/28 08:03:55;;;;;;;10.38;8.32;;;19.80;99.90;;;;;;5015543;28;20471;-77
2021/07/28 08:06:21;;;;;;;11.07;8.48;;;19.70;99.90;;;;;;5015727;28;20046;-76
2021/07/28 08:08:46;;;;;;;11.00;8.43;;;19.70;99.90;;;;;;5015569;28;20046;-75
2021/07/28 08:11:12;;;;;;;14.55;9.23;;;19.70;99.90;;;;;;5015204;28;20044;-76
2021/07/28 08:13:39;;;;;;;12.90;9.23;;;19.60;99.90;;;;;;5015332;28;20026;-76
2021/07/28 08:16:18;;;;;;;13.43;9.45;;;19.60;99.90;;;;;;5015405;28;20029;-76
2021/07/28 08:18:45;;;;;;;13.57;9.43;;;19.60;99.90;;;;;;5015350;28;20029;-76
2021/07/28 08:21:11;;;;;;;15.00;10.23;;;19.60;99.90;;;;;;5014939;28;20144;-76
2021/07/28 08:24:01;;;;;;;15.38;10.38;;;19.50;99.90;;;;;;5015505;28;20030;-76
2021/07/28 08:26:27;;;;;;;17.77;11.15;;;19.50;99.90;;;;;;5015102;28;20080;-76
2021/07/28 08:28:52;;;;;;;15.73;9.80;;;19.50;99.90;;;;;;5015154;28;20022;-75
2021/07/28 08:31:18;;;;;;;12.75;10.35;;;19.40;99.90;;;;;;5005640;28;20501;-80
2021/07/28 08:33:43;;;;;;;15.65;11.00;;;19.30;99.90;;;;;;5006038;28;20475;-80
2021/07/28 08:36:09;;;;;;;14.35;11.55;;;19.20;99.90;;;;;;5006204;28;20825;-80
2021/07/28 08:38:35;;;;;;;16.00;11.75;;;19.10;99.90;;;;;;5007180;28;20030;-80
2021/07/28 08:41:01;;;;;;;16.10;11.48;;;19.10;99.90;;;;;;5006936;28;20033;-80
2021/07/28 08:43:29;;;;;;;15.85;11.90;;;19.00;99.90;;;;;;5007562;28;20041;-80
2021/07/28 08:46:16;;;;;;;14.82;11.98;;;18.90;99.90;;;;;;5005937;28;20034;-81
2021/07/28 08:48:41;;;;;;;14.35;11.98;;;18.90;99.90;;;;;;5014168;28;20088;-76
2021/07/28 08:51:07;;;;;;;16.92;13.40;;;18.80;99.90;;;;;;5014629;28;20042;-77
2021/07/28 08:53:33;;;;;;;18.33;13.13;;;18.80;99.90;;;;;;5014283;28;20108;-77
2021/07/28 08:56:02;;;;;;;17.63;13.93;;;18.70;99.90;;;;;;5014812;28;20101;-78
2021/07/28 08:58:29;;;;;;;15.70;13.25;;;18.60;99.90;;;;;;5014982;28;20470;-79
2021/07/28 09:00:55;;;;;;;20.58;14.45;;;18.60;99.90;;;;;;5014348;28;20022;-78
2021/07/28 09:03:21;;;;;;;17.55;14.60;;;18.50;99.90;;;;;;5014626;28;20423;-78
2021/07/28 09:05:48;;;;;;;19.35;15.93;;;18.40;99.90;;;;;;5014530;28;20036;-79
2021/07/28 09:08:40;;;;;;;18.90;14.88;;;18.40;99.90;;;;;;5014622;28;20101;-78
2021/07/28 09:11:07;;;;;;;18.80;14.68;;;18.30;99.90;;;;;;5011321;28;20041;-78
2021/07/28 09:13:41;;;;;;;19.17;14.88;;;18.20;99.90;;;;;;5014368;28;20030;-78
2021/07/28 09:16:12;;;;;;;18.33;14.13;;;18.20;99.90;;;;;;5014408;28;20030;-79
2021/07/28 09:18:40;;;;;;;22.85;16.48;;;18.20;99.90;;;;;;5014383;28;20025;-78
2021/07/28 09:21:27;;;;;;;19.02;16.10;;;18.20;99.90;;;;;;4996402;28;20104;-79
2021/07/28 09:24:06;;;;;;;21.85;16.15;;;18.10;99.90;;;;;;5013948;28;20022;-80
2021/07/28 09:26:39;;;;;;;21.58;17.02;;;18.10;99.90;;;;;;5014319;28;20088;-78
2021/07/28 09:29:12;;;;;;;24.92;17.20;;;18.10;99.90;;;;;;5009982;28;20129;-82
2021/07/28 09:31:52;;;;;;;23.80;17.85;;;18.00;99.90;;;;;;4991667;28;20649;-82
2021/07/28 09:34:21;;;;;;;21.77;17.42;;;18.00;99.90;;;;;;4997045;28;20029;-82
2021/07/28 09:36:55;;;;;;;27.30;19.40;;;18.00;99.90;;;;;;5008786;28;20426;-83
2021/07/28 09:39:30;;;;;;;26.05;19.30;;;17.90;99.90;;;;;;5007104;28;20045;-83
2021/07/28 09:42:20;;;;;;;26.92;20.27;;;17.90;99.90;;;;;;5007813;28;20033;-83
2021/07/28 09:44:48;;;;;;;24.63;19.13;;;17.90;99.90;;;;;;5007458;28;20049;-83
2021/07/28 09:47:15;;;;;;;26.38;19.40;;;17.90;99.90;;;;;;5006821;28;20498;-83
2021/07/28 09:49:46;;;;;;;28.48;20.08;;;17.90;99.90;;;;;;5007405;28;20077;-82
2021/07/28 09:52:18;;;;;;;22.30;17.45;;;17.90;99.90;;;;;;5005814;28;20163;-83
2021/07/28 09:54:44;;;;;;;20.75;15.73;;;17.80;99.90;;;;;;5006295;28;20041;-82
2021/07/28 09:57:14;;;;;;;10.30;9.13;;;17.80;99.90;;;;;;4987417;28;20409;-83
2021/07/28 09:59:45;;;;;;;10.77;8.68;;;17.80;99.90;;;;;;5004429;28;20030;-83
2021/07/28 10:02:12;;;;;;;10.80;7.80;;;17.70;99.90;;;;;;5005287;28;20041;-83
2021/07/28 10:04:39;;;;;;;9.80;8.65;;;17.70;99.90;;;;;;5003566;28;20061;-84
2021/07/28 10:07:04;;;;;;;11.23;8.43;;;17.70;99.90;;;;;;4987279;28;20033;-84
2021/07/28 10:09:36;;;;;;;13.05;9.73;;;17.60;99.90;;;;;;5004902;28;20486;-83
2021/07/28 10:12:02;;;;;;;14.43;10.77;;;17.70;99.90;;;;;;5001892;28;20042;-84
2021/07/28 10:14:28;;;;;;;13.48;10.13;;;17.70;99.90;;;;;;5004922;28;20034;-84
2021/07/28 10:16:54;;;;;;;11.35;7.55;;;17.80;99.90;;;;;;5006102;28;20530;-77
2021/07/28 10:19:21;;;;;;;9.18;6.60;;;17.90;99.90;;;;;;5006390;28;20105;-82
2021/07/28 10:21:47;;;;;;;6.78;5.97;;;18.10;99.90;;;;;;4986111;28;20672;-82
2021/07/28 10:24:13;;;;;;;9.00;6.53;;;18.10;99.90;;;;;;4985459;28;20057;-81
2021/07/28 10:26:42;;;;;;;9.88;6.40;;;18.20;99.90;;;;;;5004096;28;20050;-82
2021/07/28 10:29:09;;;;;;;10.85;6.50;;;18.20;99.90;;;;;;4985335;28;20042;-81
2021/07/28 10:31:46;;;;;;;7.47;5.90;;;18.30;99.90;;;;;;5003575;28;20064;-81
2021/07/28 10:34:26;;;;;;;9.38;4.68;;;18.30;99.90;;;;;;4972980;28;20040;-81
2021/07/28 10:37:07;;;;;;;6.13;4.75;;;18.30;99.90;;;;;;4985479;28;20141;-82
2021/07/28 10:39:42;;;;;;;5.88;5.07;;;18.20;99.90;;;;;;5002725;28;20022;-81
2021/07/28 10:42:19;;;;;;;7.70;4.95;;;18.20;99.90;;;;;;5003613;28;20057;-81
2021/07/28 10:45:09;;;;;;;5.40;4.45;;;18.20;99.90;;;;;;5004711;28;20637;-82
2021/07/28 10:47:42;;;;;;;6.25;4.50;;;18.10;99.90;;;;;;5004176;28;20530;-75
2021/07/28 10:50:20;;;;;;;5.65;4.57;;;18.20;99.90;;;;;;5009993;28;20034;-82
2021/07/28 10:52:48;;;;;;;6.20;4.55;;;18.40;99.90;;;;;;5003849;28;20100;-82
2021/07/28 10:55:15;;;;;;;6.00;4.32;;;18.50;99.90;;;;;;5004370;28;20110;-83
2021/07/28 10:57:46;;;;;;;7.65;4.50;;;18.50;99.90;;;;;;4986429;28;20378;-83
2021/07/28 11:00:33;;;;;;;5.30;4.22;;;18.60;99.90;;;;;;4999618;28;20484;-83
2021/07/28 11:02:58;;;;;;;6.88;4.25;;;18.80;99.90;;;;;;5003087;28;20386;-83
2021/07/28 11:05:26;;;;;;;6.57;4.57;;;18.80;99.90;;;;;;5004064;28;20033;-83
2021/07/28 11:08:04;;;;;;;7.40;4.63;;;18.90;99.90;;;;;;5004172;28;20467;-83
2021/07/28 11:10:49;;;;;;;5.97;4.45;;;19.00;99.90;;;;;;5005050;28;20103;-83
2021/07/28 11:13:17;;;;;;;6.47;5.20;;;19.10;99.90;;;;;;5001864;28;20053;-82
2021/07/28 11:15:57;;;;;;;6.85;4.68;;;19.30;99.90;;;;;;5004466;28;20053;-81
2021/07/28 11:18:43;;;;;;;7.60;4.63;;;19.40;99.90;;;;;;5006033;28;20026;-82
2021/07/28 11:21:22;;;;;;;7.38;5.13;;;19.60;99.90;;;;;;5005978;28;20123;-82
2021/07/28 11:24:02;;;;;;;5.38;4.75;;;19.80;99.90;;;;;;5006858;28;20040;-81
2021/07/28 11:26:38;;;;;;;6.15;4.60;;;19.90;99.90;;;;;;5007242;28;20048;-85
2021/07/28 11:29:07;;;;;;;5.57;4.35;;;20.20;99.90;;;;;;5004420;28;20676;-81
2021/07/28 11:31:40;;;;;;;6.75;4.45;;;20.60;99.90;;;;;;5004526;28;20053;-81
2021/07/28 11:34:13;;;;;;;6.30;4.43;;;20.80;99.90;;;;;;5005690;28;20690;-81
2021/07/28 11:36:41;;;;;;;6.03;4.35;;;21.10;99.90;;;;;;5006202;28;20125;-81
2021/07/28 11:39:08;;;;;;;6.35;4.47;;;21.10;99.90;;;;;;5006181;28;20050;-81
2021/07/28 11:41:34;;;;;;;6.05;4.13;;;21.10;99.90;;;;;;4986136;28;20137;-81
2021/07/28 11:44:00;;;;;;;4.72;3.88;;;21.10;99.90;;;;;;5005578;28;20137;-81
2021/07/28 11:46:25;;;;;;;5.18;4.20;;;21.10;99.90;;;;;;5005985;28;20076;-81
2021/07/28 11:48:56;;;;;;;6.90;4.43;;;20.80;99.90;;;;;;5005203;28;20132;-81
2021/07/28 11:51:27;;;;;;;4.63;4.10;;;20.60;99.90;;;;;;5004483;28;20045;-81
2021/07/28 11:54:05;;;;;;;5.80;4.03;;;20.40;99.90;;;;;;5005337;28;20026;-81
2021/07/28 11:56:31;;;;;;;7.60;4.32;;;20.30;99.90;;;;;;5005669;28;20498;-81
2021/07/28 11:58:57;;;;;;;6.20;4.43;;;20.20;99.90;;;;;;5006258;28;20030;-77
2021/07/28 12:01:30;;;;;;;5.88;4.38;;;20.00;99.90;;;;;;4997821;28;20113;-77
2021/07/28 12:03:57;;;;;;;5.72;4.30;;;20.00;99.90;;;;;;5015727;28;20101;-76
2021/07/28 12:06:31;;;;;;;6.40;4.15;;;19.90;99.90;;;;;;5015561;28;20030;-76
2021/07/28 12:09:16;;;;;;;7.03;4.82;;;19.80;99.90;;;;;;4998438;28;20343;-76
2021/07/28 12:11:54;;;;;;;5.88;4.15;;;19.70;99.90;;;;;;5015239;28;20026;-76
2021/07/28 12:14:30;;;;;;;8.73;4.85;;;19.70;99.90;;;;;;5015061;28;20103;-76
2021/07/28 12:17:05;;;;;;;5.65;4.90;;;19.70;99.90;;;;;;4997946;28;20458;-76
2021/07/28 12:19:33;;;;;;;8.45;4.50;;;19.70;99.90;;;;;;5015342;28;20359;-76
2021/07/28 12:22:09;;;;;;;5.82;4.28;;;19.70;99.90;;;;;;4997482;28;20387;-76
2021/07/28 12:24:36;;;;;;;5.70;4.40;;;19.70;99.90;;;;;;5015150;28;20459;-77
2021/07/28 12:27:20;;;;;;;5.40;4.43;;;19.70;99.90;;;;;;5013831;28;20110;-76
2021/07/28 12:30:06;;;;;;;7.05;4.55;;;19.70;99.90;;;;;;5015059;28;20026;-75
2021/07/28 12:32:40;;;;;;;6.28;5.32;;;19.70;99.90;;;;;;5015143;28;20038;-75
2021/07/28 12:35:21;;;;;;;;;;;19.80;99.90;;;;;;5015981;28;20026;-75
2021/07/28 12:38:18;;;;;;;5.93;4.50;;;20.00;99.90;;;;;;5015362;28;19917;-75
2021/07/28 12:40:50;;;;;;;6.05;4.65;;;20.00;99.90;;;;;;5015183;28;20105;-76
2021/07/28 12:43:16;;;;;;;7.53;4.75;;;20.00;99.90;;;;;;5014729;28;20032;-75
2021/07/28 12:45:42;;;;;;;6.32;4.25;;;20.10;99.90;;;;;;5014726;28;20435;-75
2021/07/28 12:48:09;;;;;;;8.48;4.30;;;20.10;99.90;;;;;;4996892;28;20033;-77
2021/07/28 12:50:35;;;;;;;5.25;4.45;;;20.10;99.90;;;;;;5014400;28;20041;-77
2021/07/28 12:53:03;;;;;;;4.95;4.32;;;20.00;99.90;;;;;;5013523;28;20478;-81